createdAt,value
2022-10-22T00:06:35.057Z,12.35
2022-10-22T00:20:35.059Z,13.85
2022-10-22T00:34:35.086Z,11.90
2022-10-22T00:48:35.212Z,11.10
2022-10-22T01:02:35.331Z,9.80
2022-10-22T01:16:35.156Z,9.70
2022-10-22T01:30:35.181Z,9.40
2022-10-22T01:58:35.205Z,8.30
2022-10-22T02:12:35.221Z,8.40
2022-10-22T02:26:35.228Z,8.20
2022-10-22T02:40:35.246Z,7.70
2022-10-22T02:54:35.298Z,7.10
2022-10-22T03:08:35.487Z,6.80
2022-10-22T03:22:35.533Z,7.00
2022-10-22T03:36:35.576Z,7.70
2022-10-22T03:50:35.589Z,6.90
2022-10-22T04:04:35.605Z,7.00
2022-10-22T04:18:35.596Z,6.00
2022-10-22T04:32:35.615Z,6.70
2022-10-22T04:46:35.740Z,6.70
2022-10-22T05:00:35.913Z,5.90
2022-10-22T05:14:35.746Z,6.10
2022-10-22T05:28:35.769Z,5.70
2022-10-22T05:42:35.832Z,5.60
2022-10-22T05:57:35.822Z,32.30
2022-10-22T06:12:35.832Z,35.10
2022-10-22T06:27:35.837Z,33.60
2022-10-22T06:42:35.885Z,29.90
2022-10-22T06:57:35.914Z,29.10
2022-10-22T07:12:35.918Z,26.55
2022-10-22T07:27:35.947Z,21.80
2022-10-22T07:42:35.960Z,20.10
2022-10-22T07:57:35.996Z,18.10
2022-10-22T08:12:35.982Z,15.60
2022-10-22T08:27:35.979Z,13.80
2022-10-22T08:42:35.988Z,12.80
2022-10-22T08:57:35.991Z,12.00
2022-10-22T09:12:35.990Z,9.45
2022-10-22T09:27:36.059Z,10.10
2022-10-22T09:42:36.050Z,7.90
2022-10-22T09:57:37.160Z,6.90
2022-10-22T10:12:36.076Z,7.10
2022-10-22T10:27:36.123Z,8.55
2022-10-22T10:42:36.251Z,12.00
2022-10-22T10:58:36.234Z,9.30
2022-10-22T11:13:36.238Z,8.80
2022-10-22T11:28:36.245Z,9.00
2022-10-22T11:43:36.252Z,7.90
2022-10-22T11:58:36.265Z,8.40
2022-10-22T12:13:36.327Z,8.95
2022-10-22T12:28:36.364Z,8.90
2022-10-22T12:43:36.395Z,7.40
2022-10-22T12:58:36.395Z,6.00
2022-10-22T13:13:36.412Z,7.40
2022-10-22T13:28:36.421Z,8.30
2022-10-22T13:43:36.396Z,5.10
2022-10-22T13:58:36.446Z,5.65
2022-10-22T14:13:36.701Z,5.10
2022-10-22T14:29:36.540Z,4.60
2022-10-22T14:44:36.915Z,6.60
2022-10-22T14:59:36.920Z,5.30
2022-10-22T15:14:36.935Z,4.10
2022-10-22T15:29:36.940Z,8.80
2022-10-22T15:45:36.930Z,7.90
2022-10-22T16:00:36.958Z,8.00
2022-10-22T16:16:37.089Z,17.50
2022-10-22T16:32:37.069Z,25.20
2022-10-22T16:47:37.052Z,30.60
2022-10-22T17:02:37.125Z,30.90
2022-10-22T17:16:37.113Z,26.70
2022-10-22T17:30:37.115Z,22.00
2022-10-22T17:44:37.132Z,21.70
2022-10-22T17:58:37.192Z,18.90
2022-10-22T18:12:37.222Z,14.90
2022-10-22T18:26:37.188Z,12.20
2022-10-22T18:40:37.209Z,12.60
2022-10-22T18:54:37.217Z,10.60
2022-10-22T19:08:37.291Z,9.50
2022-10-22T19:22:37.262Z,7.60
2022-10-22T19:36:37.255Z,7.30
2022-10-22T19:50:37.256Z,6.70
2022-10-22T20:04:37.328Z,6.50
2022-10-22T20:18:37.335Z,5.00
2022-10-22T20:32:37.363Z,4.00
2022-10-22T20:46:37.364Z,4.00
2022-10-22T21:00:37.381Z,3.10
2022-10-22T21:14:37.380Z,3.50
2022-10-22T21:28:37.371Z,2.80
2022-10-22T21:42:37.398Z,2.70
2022-10-22T21:56:37.425Z,2.90
2022-10-22T22:10:37.492Z,1.80
2022-10-22T22:24:37.514Z,1.90
2022-10-22T22:38:37.530Z,2.20
2022-10-22T22:52:37.536Z,1.60
2022-10-22T23:06:37.543Z,1.80
2022-10-22T23:20:37.639Z,6.40
2022-10-22T23:34:37.606Z,4.80
2022-10-22T23:48:37.583Z,4.70
